sensor_id;sensor_type;location;lat;lon;timestamp;P1;durP1;ratioP1;P2;durP2;ratioP2
53389;SDS011;39288;42.970;1.524;2022-07-11T00:00:56;2.83;;;1.10;;
53389;SDS011;39288;42.970;1.524;2022-07-11T00:01:57;1.60;;;1.30;;
53389;SDS011;39288;42.970;1.524;2022-07-11T00:03:01;1.98;;;1.10;;
53389;SDS011;39288;42.970;1.524;2022-07-11T00:04:02;2.83;;;1.40;;
53389;SDS011;39288;42.970;1.524;2022-07-11T00:05:03;1.10;;;1.00;;
53389;SDS011;39288;42.970;1.524;2022-07-11T00:06:03;1.30;;;1.20;;
53389;SDS011;39288;42.970;1.524;2022-07-11T00:07:04;2.07;;;1.13;;
53389;SDS011;39288;42.970;1.524;2022-07-11T00:08:05;2.63;;;1.30;;
53389;SDS011;39288;42.970;1.524;2022-07-11T00:09:06;2.70;;;1.40;;
53389;SDS011;39288;42.970;1.524;2022-07-11T00:10:07;1.43;;;1.30;;
53389;SDS011;39288;42.970;1.524;2022-07-11T00:11:08;4.70;;;1.10;;
53389;SDS011;39288;42.970;1.524;2022-07-11T00:12:08;1.33;;;1.23;;
53389;SDS011;39288;42.970;1.524;2022-07-11T00:13:09;1.85;;;1.27;;
53389;SDS011;39288;42.970;1.524;2022-07-11T00:14:10;3.27;;;1.50;;
53389;SDS011;39288;42.970;1.524;2022-07-11T00:15:10;2.00;;;1.17;;
53389;SDS011;39288;42.970;1.524;2022-07-11T00:16:11;1.57;;;1.00;;
53389;SDS011;39288;42.970;1.524;2022-07-11T00:17:11;1.67;;;1.10;;
53389;SDS011;39288;42.970;1.524;2022-07-11T00:18:12;2.80;;;1.20;;
53389;SDS011;39288;42.970;1.524;2022-07-11T00:19:12;1.93;;;0.90;;
53389;SDS011;39288;42.970;1.524;2022-07-11T00:20:13;2.13;;;1.17;;
53389;SDS011;39288;42.970;1.524;2022-07-11T00:21:13;4.13;;;1.30;;
53389;SDS011;39288;42.970;1.524;2022-07-11T00:22:14;1.73;;;1.10;;
53389;SDS011;39288;42.970;1.524;2022-07-11T00:23:14;2.67;;;1.40;;
53389;SDS011;39288;42.970;1.524;2022-07-11T00:24:15;1.77;;;1.20;;
53389;SDS011;39288;42.970;1.524;2022-07-11T00:25:17;3.33;;;1.50;;
53389;SDS011;39288;42.970;1.524;2022-07-11T00:26:18;2.03;;;1.00;;
53389;SDS011;39288;42.970;1.524;2022-07-11T00:27:18;2.73;;;1.37;;
53389;SDS011;39288;42.970;1.524;2022-07-11T00:28:19;2.13;;;1.27;;
53389;SDS011;39288;42.970;1.524;2022-07-11T00:29:20;1.53;;;1.10;;
53389;SDS011;39288;42.970;1.524;2022-07-11T00:30:20;1.33;;;1.17;;
53389;SDS011;39288;42.970;1.524;2022-07-11T00:31:21;2.00;;;1.60;;
53389;SDS011;39288;42.970;1.524;2022-07-11T00:32:21;1.83;;;1.10;;
53389;SDS011;39288;42.970;1.524;2022-07-11T00:33:22;1.20;;;1.10;;
53389;SDS011;39288;42.970;1.524;2022-07-11T00:34:22;3.93;;;1.10;;
53389;SDS011;39288;42.970;1.524;2022-07-11T00:35:23;1.70;;;1.15;;
53389;SDS011;39288;42.970;1.524;2022-07-11T00:36:24;2.10;;;1.13;;
53389;SDS011;39288;42.970;1.524;2022-07-11T00:37:25;3.13;;;1.20;;
53389;SDS011;39288;42.970;1.524;2022-07-11T00:38:25;2.07;;;1.10;;
53389;SDS011;39288;42.970;1.524;2022-07-11T00:39:25;2.50;;;1.30;;
53389;SDS011;39288;42.970;1.524;2022-07-11T00:40:26;2.20;;;1.13;;
53389;SDS011;39288;42.970;1.524;2022-07-11T00:41:26;1.67;;;1.40;;
53389;SDS011;39288;42.970;1.524;2022-07-11T00:42:27;2.70;;;1.30;;
53389;SDS011;39288;42.970;1.524;2022-07-11T00:43:31;3.73;;;1.33;;
53389;SDS011;39288;42.970;1.524;2022-07-11T00:44:31;1.65;;;1.40;;
53389;SDS011;39288;42.970;1.524;2022-07-11T00:45:32;3.90;;;1.27;;
53389;SDS011;39288;42.970;1.524;2022-07-11T00:46:33;1.33;;;1.00;;
53389;SDS011;39288;42.970;1.524;2022-07-11T00:47:33;2.10;;;1.17;;
53389;SDS011;39288;42.970;1.524;2022-07-11T00:48:34;2.93;;;1.30;;
53389;SDS011;39288;42.970;1.524;2022-07-11T00:49:35;1.83;;;1.30;;
53389;SDS011;39288;42.970;1.524;2022-07-11T00:50:36;2.70;;;1.20;;
53389;SDS011;39288;42.970;1.524;2022-07-11T00:51:36;3.53;;;1.50;;
53389;SDS011;39288;42.970;1.524;2022-07-11T00:52:37;1.67;;;1.20;;
53389;SDS011;39288;42.970;1.524;2022-07-11T00:53:38;2.30;;;1.30;;
53389;SDS011;39288;42.970;1.524;2022-07-11T00:54:39;2.03;;;1.80;;
53389;SDS011;39288;42.970;1.524;2022-07-11T00:55:39;3.20;;;1.30;;
53389;SDS011;39288;42.970;1.524;2022-07-11T00:56:40;1.52;;;1.20;;
53389;SDS011;39288;42.970;1.524;2022-07-11T00:57:41;1.70;;;1.10;;
53389;SDS011;39288;42.970;1.524;2022-07-11T00:58:42;1.67;;;1.30;;
53389;SDS011;39288;42.970;1.524;2022-07-11T00:59:43;1.83;;;1.47;;
53389;SDS011;39288;42.970;1.524;2022-07-11T01:00:44;2.80;;;1.30;;
53389;SDS011;39288;42.970;1.524;2022-07-11T01:01:44;1.80;;;1.47;;
53389;SDS011;39288;42.970;1.524;2022-07-11T01:02:45;1.73;;;1.53;;
53389;SDS011;39288;42.970;1.524;2022-07-11T01:03:45;1.67;;;1.17;;
53389;SDS011;39288;42.970;1.524;2022-07-11T01:04:46;3.27;;;1.50;;
53389;SDS011;39288;42.970;1.524;2022-07-11T01:05:46;1.80;;;1.10;;
53389;SDS011;39288;42.970;1.524;2022-07-11T01:06:47;2.53;;;1.50;;
53389;SDS011;39288;42.970;1.524;2022-07-11T01:07:47;1.57;;;1.37;;
53389;SDS011;39288;42.970;1.524;2022-07-11T01:08:48;3.07;;;1.40;;
53389;SDS011;39288;42.970;1.524;2022-07-11T01:09:49;5.17;;;1.40;;
53389;SDS011;39288;42.970;1.524;2022-07-11T01:10:50;1.90;;;1.45;;
53389;SDS011;39288;42.970;1.524;2022-07-11T01:11:51;2.00;;;1.40;;
53389;SDS011;39288;42.970;1.524;2022-07-11T01:12:51;2.40;;;1.47;;
53389;SDS011;39288;42.970;1.524;2022-07-11T01:13:52;4.90;;;1.23;;
53389;SDS011;39288;42.970;1.524;2022-07-11T01:17:22;2.10;;;1.10;;
53389;SDS011;39288;42.970;1.524;2022-07-11T01:18:23;2.10;;;1.20;;
53389;SDS011;39288;42.970;1.524;2022-07-11T01:19:23;2.00;;;1.40;;
53389;SDS011;39288;42.970;1.524;2022-07-11T01:20:24;1.77;;;1.27;;
53389;SDS011;39288;42.970;1.524;2022-07-11T01:21:31;3.07;;;1.10;;
53389;SDS011;39288;42.970;1.524;2022-07-11T01:22:35;4.63;;;1.33;;
53389;SDS011;39288;42.970;1.524;2022-07-11T01:23:37;1.88;;;1.20;;
53389;SDS011;39288;42.970;1.524;2022-07-11T01:24:38;2.30;;;1.23;;
53389;SDS011;39288;42.970;1.524;2022-07-11T01:25:39;3.30;;;1.40;;
53389;SDS011;39288;42.970;1.524;2022-07-11T01:26:39;2.33;;;1.50;;
53389;SDS011;39288;42.970;1.524;2022-07-11T01:27:40;3.00;;;1.10;;
53389;SDS011;39288;42.970;1.524;2022-07-11T01:28:40;1.63;;;1.40;;
53389;SDS011;39288;42.970;1.524;2022-07-11T01:29:41;1.70;;;1.60;;
53389;SDS011;39288;42.970;1.524;2022-07-11T01:30:41;4.17;;;1.30;;
53389;SDS011;39288;42.970;1.524;2022-07-11T01:31:43;3.73;;;1.50;;
53389;SDS011;39288;42.970;1.524;2022-07-11T01:32:44;2.17;;;1.25;;
53389;SDS011;39288;42.970;1.524;2022-07-11T01:33:44;2.40;;;1.47;;
53389;SDS011;39288;42.970;1.524;2022-07-11T01:34:45;1.63;;;1.23;;
53389;SDS011;39288;42.970;1.524;2022-07-11T01:35:46;3.57;;;1.50;;
53389;SDS011;39288;42.970;1.524;2022-07-11T01:36:46;4.87;;;1.60;;
53389;SDS011;39288;42.970;1.524;2022-07-11T01:37:47;1.60;;;1.23;;
53389;SDS011;39288;42.970;1.524;2022-07-11T01:38:47;4.83;;;1.47;;
53389;SDS011;39288;42.970;1.524;2022-07-11T01:39:48;3.30;;;1.40;;
53389;SDS011;39288;42.970;1.524;2022-07-11T01:40:48;1.97;;;1.60;;
53389;SDS011;39288;42.970;1.524;2022-07-11T01:41:49;2.53;;;1.70;;
53389;SDS011;39288;42.970;1.524;2022-07-11T01:42:49;3.60;;;1.20;;
53389;SDS011;39288;42.970;1.524;2022-07-11T01:43:50;3.43;;;1.57;;
53389;SDS011;39288;42.970;1.524;2022-07-11T01:44:51;3.73;;;1.60;;
53389;SDS011;39288;42.970;1.524;2022-07-11T01:45:52;2.40;;;1.50;;
53389;SDS011;39288;42.970;1.524;2022-07-11T01:46:53;3.30;;;1.77;;
53389;SDS011;39288;42.970;1.524;2022-07-11T01:47:53;1.47;;;1.37;;
53389;SDS011;39288;42.970;1.524;2022-07-11T01:48:54;1.97;;;1.53;;
53389;SDS011;39288;42.970;1.524;2022-07-11T01:49:54;1.97;;;1.50;;
53389;SDS011;39288;42.970;1.524;2022-07-11T01:50:55;2.10;;;1.30;;
53389;SDS011;39288;42.970;1.524;2022-07-11T01:51:56;2.72;;;1.55;;
53389;SDS011;39288;42.970;1.524;2022-07-11T01:52:57;4.47;;;1.20;;
53389;SDS011;39288;42.970;1.524;2022-07-11T01:53:57;1.40;;;1.27;;
53389;SDS011;39288;42.970;1.524;2022-07-11T01:54:58;2.87;;;1.53;;
53389;SDS011;39288;42.970;1.524;2022-07-11T01:55:58;3.43;;;1.63;;
53389;SDS011;39288;42.970;1.524;2022-07-11T01:56:59;4.03;;;1.40;;
53389;SDS011;39288;42.970;1.524;2022-07-11T01:57:59;2.43;;;1.73;;
53389;SDS011;39288;42.970;1.524;2022-07-11T01:59:00;1.60;;;1.37;;
53389;SDS011;39288;42.970;1.524;2022-07-11T02:00:01;3.95;;;1.27;;
53389;SDS011;39288;42.970;1.524;2022-07-11T02:01:02;4.00;;;1.90;;
53389;SDS011;39288;42.970;1.524;2022-07-11T02:02:03;3.33;;;1.40;;
53389;SDS011;39288;42.970;1.524;2022-07-11T02:03:04;2.73;;;1.33;;
53389;SDS011;39288;42.970;1.524;2022-07-11T02:04:04;1.70;;;1.60;;
53389;SDS011;39288;42.970;1.524;2022-07-11T02:05:05;2.08;;;1.50;;
53389;SDS011;39288;42.970;1.524;2022-07-11T02:06:06;2.00;;;1.50;;
53389;SDS011;39288;42.970;1.524;2022-07-11T02:07:07;1.77;;;1.60;;
53389;SDS011;39288;42.970;1.524;2022-07-11T02:08:09;4.00;;;1.60;;
53389;SDS011;39288;42.970;1.524;2022-07-11T02:09:13;3.45;;;1.48;;
53389;SDS011;39288;42.970;1.524;2022-07-11T02:10:13;3.83;;;1.57;;
53389;SDS011;39288;42.970;1.524;2022-07-11T02:11:14;2.23;;;1.40;;
53389;SDS011;39288;42.970;1.524;2022-07-11T02:12:14;1.50;;;1.40;;
53389;SDS011;39288;42.970;1.524;2022-07-11T02:13:19;1.93;;;1.63;;
53389;SDS011;39288;42.970;1.524;2022-07-11T02:14:20;3.13;;;1.30;;
53389;SDS011;39288;42.970;1.524;2022-07-11T02:15:21;2.60;;;1.50;;
53389;SDS011;39288;42.970;1.524;2022-07-11T02:16:22;2.67;;;1.73;;
53389;SDS011;39288;42.970;1.524;2022-07-11T02:17:22;2.20;;;1.47;;
53389;SDS011;39288;42.970;1.524;2022-07-11T02:18:23;2.03;;;1.63;;
53389;SDS011;39288;42.970;1.524;2022-07-11T02:19:23;3.27;;;1.50;;
53389;SDS011;39288;42.970;1.524;2022-07-11T02:20:24;1.50;;;1.40;;
53389;SDS011;39288;42.970;1.524;2022-07-11T02:21:25;2.72;;;1.67;;
53389;SDS011;39288;42.970;1.524;2022-07-11T02:22:25;2.67;;;1.67;;
53389;SDS011;39288;42.970;1.524;2022-07-11T02:23:27;3.22;;;1.38;;
53389;SDS011;39288;42.970;1.524;2022-07-11T02:24:28;3.80;;;1.50;;
53389;SDS011;39288;42.970;1.524;2022-07-11T02:26:31;4.10;;;1.60;;
53389;SDS011;39288;42.970;1.524;2022-07-11T02:27:31;1.70;;;1.60;;
53389;SDS011;39288;42.970;1.524;2022-07-11T02:28:32;1.57;;;1.27;;
53389;SDS011;39288;42.970;1.524;2022-07-11T02:29:34;3.58;;;1.50;;
53389;SDS011;39288;42.970;1.524;2022-07-11T02:30:38;2.37;;;1.90;;
53389;SDS011;39288;42.970;1.524;2022-07-11T02:31:39;3.03;;;1.55;;
53389;SDS011;39288;42.970;1.524;2022-07-11T02:32:40;3.80;;;2.03;;
53389;SDS011;39288;42.970;1.524;2022-07-11T02:33:40;2.10;;;1.50;;
53389;SDS011;39288;42.970;1.524;2022-07-11T02:34:40;7.50;;;2.27;;
53389;SDS011;39288;42.970;1.524;2022-07-11T02:35:42;3.47;;;1.87;;
53389;SDS011;39288;42.970;1.524;2022-07-11T02:36:42;3.10;;;1.75;;
53389;SDS011;39288;42.970;1.524;2022-07-11T02:37:43;2.33;;;1.57;;
53389;SDS011;39288;42.970;1.524;2022-07-11T02:38:43;1.73;;;1.20;;
53389;SDS011;39288;42.970;1.524;2022-07-11T02:39:44;3.27;;;1.60;;
53389;SDS011;39288;42.970;1.524;2022-07-11T02:40:45;1.63;;;1.38;;
53389;SDS011;39288;42.970;1.524;2022-07-11T02:41:47;2.50;;;1.67;;
53389;SDS011;39288;42.970;1.524;2022-07-11T02:42:47;1.53;;;1.43;;
53389;SDS011;39288;42.970;1.524;2022-07-11T02:43:48;3.40;;;1.63;;
53389;SDS011;39288;42.970;1.524;2022-07-11T02:44:48;2.67;;;1.60;;
53389;SDS011;39288;42.970;1.524;2022-07-11T02:45:49;5.53;;;1.57;;
53389;SDS011;39288;42.970;1.524;2022-07-11T02:46:49;1.83;;;1.67;;
53389;SDS011;39288;42.970;1.524;2022-07-11T02:47:50;1.97;;;1.40;;
53389;SDS011;39288;42.970;1.524;2022-07-11T02:48:50;3.20;;;1.90;;
53389;SDS011;39288;42.970;1.524;2022-07-11T02:49:51;9.30;;;2.40;;
53389;SDS011;39288;42.970;1.524;2022-07-11T02:50:51;2.77;;;1.87;;
53389;SDS011;39288;42.970;1.524;2022-07-11T02:51:52;2.00;;;1.80;;
53389;SDS011;39288;42.970;1.524;2022-07-11T02:52:52;6.27;;;1.73;;
53389;SDS011;39288;42.970;1.524;2022-07-11T02:53:53;2.30;;;1.80;;
53389;SDS011;39288;42.970;1.524;2022-07-11T02:54:54;2.88;;;1.73;;
53389;SDS011;39288;42.970;1.524;2022-07-11T02:55:54;1.87;;;1.60;;
53389;SDS011;39288;42.970;1.524;2022-07-11T02:56:55;2.00;;;1.70;;
53389;SDS011;39288;42.970;1.524;2022-07-11T02:57:55;2.50;;;1.60;;
53389;SDS011;39288;42.970;1.524;2022-07-11T02:58:56;3.10;;;2.07;;
53389;SDS011;39288;42.970;1.524;2022-07-11T02:59:56;2.40;;;1.90;;
53389;SDS011;39288;42.970;1.524;2022-07-11T03:00:56;4.03;;;1.77;;
53389;SDS011;39288;42.970;1.524;2022-07-11T03:01:57;2.63;;;1.70;;
53389;SDS011;39288;42.970;1.524;2022-07-11T03:02:57;2.33;;;1.60;;
53389;SDS011;39288;42.970;1.524;2022-07-11T03:03:58;3.07;;;1.67;;
53389;SDS011;39288;42.970;1.524;2022-07-11T03:04:58;2.93;;;1.53;;
53389;SDS011;39288;42.970;1.524;2022-07-11T03:05:59;3.70;;;1.83;;
53389;SDS011;39288;42.970;1.524;2022-07-11T03:07:00;2.72;;;1.85;;
53389;SDS011;39288;42.970;1.524;2022-07-11T03:08:00;2.73;;;1.83;;
53389;SDS011;39288;42.970;1.524;2022-07-11T03:09:01;2.60;;;1.70;;
53389;SDS011;39288;42.970;1.524;2022-07-11T03:10:02;3.83;;;2.03;;
53389;SDS011;39288;42.970;1.524;2022-07-11T03:11:03;2.37;;;1.87;;
53389;SDS011;39288;42.970;1.524;2022-07-11T03:12:03;2.93;;;1.97;;
53389;SDS011;39288;42.970;1.524;2022-07-11T03:13:04;3.72;;;2.03;;
53389;SDS011;39288;42.970;1.524;2022-07-11T03:14:05;3.70;;;2.00;;
53389;SDS011;39288;42.970;1.524;2022-07-11T03:15:05;2.37;;;1.80;;
53389;SDS011;39288;42.970;1.524;2022-07-11T03:16:06;3.03;;;1.50;;
53389;SDS011;39288;42.970;1.524;2022-07-11T03:17:07;2.20;;;1.63;;
53389;SDS011;39288;42.970;1.524;2022-07-11T03:18:07;2.17;;;1.93;;
53389;SDS011;39288;42.970;1.524;2022-07-11T03:19:08;2.37;;;1.60;;
53389;SDS011;39288;42.970;1.524;2022-07-11T03:20:09;6.80;;;1.80;;
53389;SDS011;39288;42.970;1.524;2022-07-11T03:21:10;3.58;;;2.10;;
53389;SDS011;39288;42.970;1.524;2022-07-11T03:22:10;2.37;;;2.00;;
53389;SDS011;39288;42.970;1.524;2022-07-11T03:23:11;3.57;;;1.87;;
53389;SDS011;39288;42.970;1.524;2022-07-11T03:24:11;2.73;;;1.87;;
53389;SDS011;39288;42.970;1.524;2022-07-11T03:25:12;2.30;;;1.90;;
53389;SDS011;39288;42.970;1.524;2022-07-11T03:26:12;4.00;;;2.00;;
53389;SDS011;39288;42.970;1.524;2022-07-11T03:27:13;1.83;;;1.60;;
53389;SDS011;39288;42.970;1.524;2022-07-11T03:28:13;2.77;;;1.90;;
53389;SDS011;39288;42.970;1.524;2022-07-11T03:29:14;1.97;;;1.83;;
53389;SDS011;39288;42.970;1.524;2022-07-11T03:30:14;2.13;;;1.90;;
53389;SDS011;39288;42.970;1.524;2022-07-11T03:31:14;2.17;;;1.97;;
53389;SDS011;39288;42.970;1.524;2022-07-11T03:32:15;3.30;;;2.00;;
53389;SDS011;39288;42.970;1.524;2022-07-11T03:33:16;2.10;;;1.60;;
53389;SDS011;39288;42.970;1.524;2022-07-11T03:34:16;2.00;;;1.80;;
53389;SDS011;39288;42.970;1.524;2022-07-11T03:35:17;4.23;;;1.87;;
53389;SDS011;39288;42.970;1.524;2022-07-11T03:36:36;3.38;;;1.83;;
53389;SDS011;39288;42.970;1.524;2022-07-11T03:37:36;2.60;;;1.80;;
53389;SDS011;39288;42.970;1.524;2022-07-11T03:38:37;2.33;;;1.93;;
53389;SDS011;39288;42.970;1.524;2022-07-11T03:39:40;3.13;;;2.10;;
53389;SDS011;39288;42.970;1.524;2022-07-11T03:40:41;2.80;;;2.00;;
53389;SDS011;39288;42.970;1.524;2022-07-11T03:41:41;6.40;;;2.13;;
53389;SDS011;39288;42.970;1.524;2022-07-11T03:42:42;1.93;;;1.77;;
53389;SDS011;39288;42.970;1.524;2022-07-11T03:43:43;2.05;;;1.70;;
53389;SDS011;39288;42.970;1.524;2022-07-11T03:44:44;3.63;;;2.17;;
53389;SDS011;39288;42.970;1.524;2022-07-11T03:45:44;2.63;;;1.90;;
53389;SDS011;39288;42.970;1.524;2022-07-11T03:46:46;2.58;;;2.00;;
53389;SDS011;39288;42.970;1.524;2022-07-11T03:47:46;2.37;;;2.10;;
53389;SDS011;39288;42.970;1.524;2022-07-11T03:48:48;3.35;;;2.08;;
53389;SDS011;39288;42.970;1.524;2022-07-11T03:49:48;3.27;;;1.80;;
53389;SDS011;39288;42.970;1.524;2022-07-11T03:50:49;4.70;;;2.00;;
53389;SDS011;39288;42.970;1.524;2022-07-11T03:51:52;2.50;;;1.90;;
53389;SDS011;39288;42.970;1.524;2022-07-11T03:52:52;3.80;;;1.83;;
53389;SDS011;39288;42.970;1.524;2022-07-11T03:53:53;1.87;;;1.63;;
53389;SDS011;39288;42.970;1.524;2022-07-11T03:54:53;3.47;;;2.20;;
53389;SDS011;39288;42.970;1.524;2022-07-11T03:55:54;2.67;;;1.63;;
53389;SDS011;39288;42.970;1.524;2022-07-11T03:56:54;3.50;;;2.27;;
53389;SDS011;39288;42.970;1.524;2022-07-11T03:57:55;2.87;;;2.10;;
53389;SDS011;39288;42.970;1.524;2022-07-11T03:58:55;3.17;;;2.03;;
53389;SDS011;39288;42.970;1.524;2022-07-11T03:59:56;4.67;;;2.00;;
53389;SDS011;39288;42.970;1.524;2022-07-11T04:00:56;4.20;;;2.17;;
53389;SDS011;39288;42.970;1.524;2022-07-11T04:01:57;2.80;;;2.07;;
53389;SDS011;39288;42.970;1.524;2022-07-11T04:02:57;2.00;;;1.80;;
53389;SDS011;39288;42.970;1.524;2022-07-11T04:03:58;3.03;;;2.10;;
53389;SDS011;39288;42.970;1.524;2022-07-11T04:04:58;3.57;;;1.97;;
53389;SDS011;39288;42.970;1.524;2022-07-11T04:05:59;3.50;;;2.40;;
53389;SDS011;39288;42.970;1.524;2022-07-11T04:06:59;3.23;;;2.00;;
53389;SDS011;39288;42.970;1.524;2022-07-11T04:08:00;3.43;;;2.57;;
53389;SDS011;39288;42.970;1.524;2022-07-11T04:09:00;3.10;;;2.13;;
53389;SDS011;39288;42.970;1.524;2022-07-11T04:10:01;9.03;;;2.60;;
53389;SDS011;39288;42.970;1.524;2022-07-11T04:11:01;2.93;;;1.90;;
53389;SDS011;39288;42.970;1.524;2022-07-11T04:12:02;2.13;;;1.80;;
53389;SDS011;39288;42.970;1.524;2022-07-11T04:13:02;2.77;;;1.80;;
53389;SDS011;39288;42.970;1.524;2022-07-11T04:14:03;4.07;;;2.13;;
53389;SDS011;39288;42.970;1.524;2022-07-11T04:15:03;7.67;;;2.23;;
53389;SDS011;39288;42.970;1.524;2022-07-11T04:16:06;3.35;;;2.00;;
53389;SDS011;39288;42.970;1.524;2022-07-11T04:17:07;2.17;;;1.90;;
53389;SDS011;39288;42.970;1.524;2022-07-11T04:18:07;2.90;;;2.33;;
53389;SDS011;39288;42.970;1.524;2022-07-11T04:19:08;2.70;;;2.50;;
53389;SDS011;39288;42.970;1.524;2022-07-11T04:20:08;3.53;;;2.10;;
53389;SDS011;39288;42.970;1.524;2022-07-11T04:21:09;3.33;;;2.20;;
53389;SDS011;39288;42.970;1.524;2022-07-11T04:22:09;4.60;;;2.10;;
53389;SDS011;39288;42.970;1.524;2022-07-11T04:23:10;2.30;;;2.03;;
53389;SDS011;39288;42.970;1.524;2022-07-11T04:24:11;2.67;;;2.17;;
53389;SDS011;39288;42.970;1.524;2022-07-11T04:25:11;3.30;;;2.13;;
53389;SDS011;39288;42.970;1.524;2022-07-11T04:26:11;3.23;;;2.00;;
53389;SDS011;39288;42.970;1.524;2022-07-11T04:27:12;3.33;;;2.47;;
53389;SDS011;39288;42.970;1.524;2022-07-11T04:28:12;3.50;;;2.37;;
53389;SDS011;39288;42.970;1.524;2022-07-11T04:29:13;3.00;;;2.50;;
53389;SDS011;39288;42.970;1.524;2022-07-11T04:30:13;3.17;;;2.10;;
53389;SDS011;39288;42.970;1.524;2022-07-11T04:31:14;2.90;;;2.30;;
53389;SDS011;39288;42.970;1.524;2022-07-11T04:32:15;3.63;;;2.23;;
53389;SDS011;39288;42.970;1.524;2022-07-11T04:33:15;3.03;;;2.10;;
53389;SDS011;39288;42.970;1.524;2022-07-11T04:34:16;3.10;;;2.20;;
53389;SDS011;39288;42.970;1.524;2022-07-11T04:35:17;2.85;;;2.10;;
53389;SDS011;39288;42.970;1.524;2022-07-11T04:36:17;2.73;;;2.20;;
53389;SDS011;39288;42.970;1.524;2022-07-11T04:37:18;5.03;;;2.43;;
53389;SDS011;39288;42.970;1.524;2022-07-11T04:38:18;3.80;;;2.37;;
53389;SDS011;39288;42.970;1.524;2022-07-11T04:39:21;2.60;;;1.92;;
53389;SDS011;39288;42.970;1.524;2022-07-11T04:40:21;2.77;;;1.90;;
53389;SDS011;39288;42.970;1.524;2022-07-11T04:41:23;2.67;;;2.33;;
53389;SDS011;39288;42.970;1.524;2022-07-11T04:42:24;3.40;;;2.20;;
53389;SDS011;39288;42.970;1.524;2022-07-11T04:43:24;5.13;;;2.20;;
53389;SDS011;39288;42.970;1.524;2022-07-11T04:44:25;2.33;;;1.70;;
53389;SDS011;39288;42.970;1.524;2022-07-11T04:45:26;2.40;;;1.88;;
53389;SDS011;39288;42.970;1.524;2022-07-11T04:46:26;3.20;;;2.10;;
53389;SDS011;39288;42.970;1.524;2022-07-11T04:47:27;2.97;;;2.10;;
53389;SDS011;39288;42.970;1.524;2022-07-11T04:48:27;2.87;;;2.00;;
53389;SDS011;39288;42.970;1.524;2022-07-11T04:49:28;3.53;;;2.40;;
53389;SDS011;39288;42.970;1.524;2022-07-11T04:50:29;3.45;;;2.53;;
53389;SDS011;39288;42.970;1.524;2022-07-11T04:51:29;2.60;;;2.30;;
53389;SDS011;39288;42.970;1.524;2022-07-11T04:52:30;3.57;;;2.13;;
53389;SDS011;39288;42.970;1.524;2022-07-11T04:53:30;2.17;;;1.97;;
53389;SDS011;39288;42.970;1.524;2022-07-11T04:54:31;2.80;;;2.03;;
53389;SDS011;39288;42.970;1.524;2022-07-11T04:55:31;2.97;;;2.17;;
53389;SDS011;39288;42.970;1.524;2022-07-11T04:56:32;2.63;;;2.07;;
53389;SDS011;39288;42.970;1.524;2022-07-11T04:57:33;3.20;;;2.23;;
53389;SDS011;39288;42.970;1.524;2022-07-11T04:58:33;2.57;;;2.37;;
53389;SDS011;39288;42.970;1.524;2022-07-11T04:59:34;3.83;;;2.63;;
53389;SDS011;39288;42.970;1.524;2022-07-11T05:00:35;3.53;;;2.47;;
53389;SDS011;39288;42.970;1.524;2022-07-11T05:01:35;7.68;;;2.33;;
53389;SDS011;39288;42.970;1.524;2022-07-11T05:02:36;2.80;;;1.90;;
53389;SDS011;39288;42.970;1.524;2022-07-11T05:03:36;2.83;;;2.33;;
53389;SDS011;39288;42.970;1.524;2022-07-11T05:04:37;2.93;;;2.50;;
53389;SDS011;39288;42.970;1.524;2022-07-11T05:05:37;2.60;;;2.40;;
53389;SDS011;39288;42.970;1.524;2022-07-11T05:06:38;2.37;;;2.17;;
53389;SDS011;39288;42.970;1.524;2022-07-11T05:07:38;3.03;;;2.40;;
53389;SDS011;39288;42.970;1.524;2022-07-11T05:08:39;3.33;;;1.97;;
53389;SDS011;39288;42.970;1.524;2022-07-11T05:09:39;3.13;;;2.13;;
53389;SDS011;39288;42.970;1.524;2022-07-11T05:10:40;2.90;;;1.97;;
53389;SDS011;39288;42.970;1.524;2022-07-11T05:11:40;2.47;;;2.23;;
53389;SDS011;39288;42.970;1.524;2022-07-11T05:12:41;2.03;;;1.77;;
53389;SDS011;39288;42.970;1.524;2022-07-11T05:13:41;2.97;;;1.90;;
53389;SDS011;39288;42.970;1.524;2022-07-11T05:14:42;5.07;;;1.93;;
53389;SDS011;39288;42.970;1.524;2022-07-11T05:15:42;3.17;;;1.90;;
53389;SDS011;39288;42.970;1.524;2022-07-11T05:17:44;2.53;;;2.08;;
53389;SDS011;39288;42.970;1.524;2022-07-11T05:18:45;2.07;;;1.80;;
53389;SDS011;39288;42.970;1.524;2022-07-11T05:19:45;4.40;;;1.77;;
53389;SDS011;39288;42.970;1.524;2022-07-11T05:20:46;2.60;;;2.10;;
53389;SDS011;39288;42.970;1.524;2022-07-11T05:21:48;3.53;;;1.83;;
53389;SDS011;39288;42.970;1.524;2022-07-11T05:22:49;2.30;;;1.93;;
53389;SDS011;39288;42.970;1.524;2022-07-11T05:23:49;3.30;;;2.00;;
53389;SDS011;39288;42.970;1.524;2022-07-11T05:24:50;2.63;;;1.60;;
53389;SDS011;39288;42.970;1.524;2022-07-11T05:25:50;2.20;;;1.90;;
53389;SDS011;39288;42.970;1.524;2022-07-11T05:26:51;2.90;;;1.53;;
53389;SDS011;39288;42.970;1.524;2022-07-11T05:27:52;2.87;;;2.13;;
53389;SDS011;39288;42.970;1.524;2022-07-11T05:28:52;2.90;;;1.80;;
53389;SDS011;39288;42.970;1.524;2022-07-11T05:29:53;4.37;;;1.87;;
53389;SDS011;39288;42.970;1.524;2022-07-11T05:30:53;2.63;;;1.90;;
53389;SDS011;39288;42.970;1.524;2022-07-11T05:31:54;2.67;;;1.53;;
53389;SDS011;39288;42.970;1.524;2022-07-11T05:32:54;4.30;;;1.90;;
53389;SDS011;39288;42.970;1.524;2022-07-11T05:33:55;4.20;;;1.60;;
53389;SDS011;39288;42.970;1.524;2022-07-11T05:34:55;1.73;;;1.50;;
53389;SDS011;39288;42.970;1.524;2022-07-11T05:36:01;3.92;;;1.75;;
53389;SDS011;39288;42.970;1.524;2022-07-11T05:37:01;1.88;;;1.45;;
53389;SDS011;39288;42.970;1.524;2022-07-11T05:38:02;2.20;;;1.60;;
53389;SDS011;39288;42.970;1.524;2022-07-11T05:39:03;2.30;;;1.83;;
53389;SDS011;39288;42.970;1.524;2022-07-11T05:40:03;4.40;;;1.97;;
53389;SDS011;39288;42.970;1.524;2022-07-11T05:41:04;3.30;;;1.98;;
53389;SDS011;39288;42.970;1.524;2022-07-11T05:42:05;4.07;;;2.00;;
53389;SDS011;39288;42.970;1.524;2022-07-11T05:43:07;1.73;;;1.63;;
53389;SDS011;39288;42.970;1.524;2022-07-11T05:45:08;1.65;;;1.55;;
53389;SDS011;39288;42.970;1.524;2022-07-11T05:46:09;2.05;;;1.75;;
53389;SDS011;39288;42.970;1.524;2022-07-11T05:47:10;2.00;;;1.67;;
53389;SDS011;39288;42.970;1.524;2022-07-11T05:48:10;2.03;;;1.60;;
53389;SDS011;39288;42.970;1.524;2022-07-11T05:49:10;2.17;;;1.60;;
53389;SDS011;39288;42.970;1.524;2022-07-11T05:51:13;2.28;;;2.05;;
53389;SDS011;39288;42.970;1.524;2022-07-11T05:52:14;1.77;;;1.52;;
53389;SDS011;39288;42.970;1.524;2022-07-11T05:53:14;1.97;;;1.70;;
53389;SDS011;39288;42.970;1.524;2022-07-11T05:54:15;4.73;;;1.80;;
53389;SDS011;39288;42.970;1.524;2022-07-11T05:55:16;4.70;;;2.15;;
53389;SDS011;39288;42.970;1.524;2022-07-11T05:56:17;4.67;;;1.70;;
53389;SDS011;39288;42.970;1.524;2022-07-11T05:57:17;4.20;;;1.93;;
53389;SDS011;39288;42.970;1.524;2022-07-11T05:58:18;1.60;;;1.50;;
53389;SDS011;39288;42.970;1.524;2022-07-11T05:59:18;3.20;;;1.80;;
53389;SDS011;39288;42.970;1.524;2022-07-11T06:00:19;3.53;;;2.00;;
53389;SDS011;39288;42.970;1.524;2022-07-11T06:01:21;3.35;;;2.10;;
53389;SDS011;39288;42.970;1.524;2022-07-11T06:02:22;2.95;;;1.60;;
53389;SDS011;39288;42.970;1.524;2022-07-11T06:03:23;4.20;;;2.07;;
53389;SDS011;39288;42.970;1.524;2022-07-11T06:04:23;5.47;;;1.63;;
53389;SDS011;39288;42.970;1.524;2022-07-11T06:05:24;2.10;;;1.90;;
53389;SDS011;39288;42.970;1.524;2022-07-11T06:06:24;6.10;;;1.90;;
53389;SDS011;39288;42.970;1.524;2022-07-11T06:07:24;1.80;;;1.70;;
53389;SDS011;39288;42.970;1.524;2022-07-11T06:08:44;3.33;;;2.05;;
53389;SDS011;39288;42.970;1.524;2022-07-11T06:09:44;3.13;;;1.67;;
53389;SDS011;39288;42.970;1.524;2022-07-11T06:10:45;7.87;;;2.00;;
53389;SDS011;39288;42.970;1.524;2022-07-11T06:11:45;3.03;;;1.97;;
53389;SDS011;39288;42.970;1.524;2022-07-11T06:12:46;6.03;;;1.90;;
53389;SDS011;39288;42.970;1.524;2022-07-11T06:13:46;2.33;;;2.00;;